createdAt,value
2017-12-03T00:02:10.780Z,50.47
2017-12-03T00:04:38.993Z,52.50
2017-12-03T00:07:07.206Z,56.58
2017-12-03T00:09:36.160Z,61.72
2017-12-03T00:12:04.366Z,59.70
2017-12-03T00:14:32.553Z,58.30
2017-12-03T00:17:01.528Z,56.53
2017-12-03T00:19:29.747Z,59.95
2017-12-03T00:21:57.983Z,63.85
2017-12-03T00:24:26.172Z,63.65
2017-12-03T00:26:55.165Z,60.25
2017-12-03T00:29:24.121Z,58.47
2017-12-03T00:31:52.331Z,63.72
2017-12-03T00:34:21.283Z,59.80
2017-12-03T00:36:49.493Z,64.00
2017-12-03T00:39:17.773Z,59.40
2017-12-03T00:41:45.967Z,64.00
2017-12-03T00:44:14.160Z,55.47
2017-12-03T00:46:42.365Z,69.43
2017-12-03T00:49:10.561Z,66.85
2017-12-03T00:51:38.792Z,60.00
2017-12-03T00:54:07.018Z,75.32
2017-12-03T00:56:35.208Z,57.75
2017-12-03T00:59:04.196Z,56.90
2017-12-03T01:01:33.202Z,69.47
2017-12-03T01:04:02.202Z,54.30
2017-12-03T01:06:30.386Z,57.97
2017-12-03T01:08:58.639Z,56.92
2017-12-03T01:11:27.615Z,60.17
2017-12-03T01:13:55.820Z,52.10
2017-12-03T01:16:24.010Z,50.63
2017-12-03T01:18:52.225Z,50.63
2017-12-03T01:21:20.435Z,60.80
2017-12-03T01:23:49.423Z,52.28
2017-12-03T01:26:18.422Z,58.50
2017-12-03T01:28:47.453Z,53.63
2017-12-03T01:31:15.687Z,55.80
2017-12-03T01:33:44.649Z,51.50
2017-12-03T01:36:12.881Z,49.95
2017-12-03T01:38:41.094Z,53.05
2017-12-03T01:41:09.277Z,54.22
2017-12-03T01:43:37.458Z,50.42
2017-12-03T01:46:05.669Z,48.50
2017-12-03T01:48:34.633Z,49.92
2017-12-03T01:51:02.837Z,51.55
2017-12-03T01:53:31.816Z,52.35
2017-12-03T01:56:00.790Z,48.58
2017-12-03T01:58:29.008Z,50.72
2017-12-03T02:00:57.215Z,45.05
2017-12-03T02:03:25.450Z,42.50
2017-12-03T02:05:54.524Z,45.88
2017-12-03T02:08:22.766Z,40.85
2017-12-03T02:10:51.030Z,48.15
2017-12-03T02:13:19.270Z,55.28
2017-12-03T02:15:48.249Z,48.05
2017-12-03T02:18:16.426Z,47.42
2017-12-03T02:20:45.446Z,48.53
2017-12-03T02:23:13.742Z,53.58
2017-12-03T02:25:41.967Z,58.25
2017-12-03T02:28:10.216Z,53.75
2017-12-03T02:30:38.421Z,76.97
2017-12-03T02:33:06.647Z,48.92
2017-12-03T02:35:34.869Z,43.47
2017-12-03T02:38:03.142Z,45.58
2017-12-03T02:40:31.375Z,46.10
2017-12-03T02:42:59.606Z,46.92
2017-12-03T02:45:28.581Z,45.53
2017-12-03T02:47:56.817Z,47.13
2017-12-03T02:50:25.026Z,42.62
2017-12-03T02:52:53.238Z,45.38
2017-12-03T02:55:22.219Z,43.08
2017-12-03T02:57:51.256Z,41.67
2017-12-03T03:00:19.563Z,38.40
2017-12-03T03:02:47.783Z,39.72
2017-12-03T03:05:16.780Z,46.88
2017-12-03T03:07:45.754Z,35.35
2017-12-03T03:10:14.751Z,39.65
2017-12-03T03:12:43.781Z,42.00
2017-12-03T03:15:11.998Z,41.65
2017-12-03T03:17:40.257Z,40.17
2017-12-03T03:20:08.522Z,42.20
2017-12-03T03:22:36.790Z,39.88
2017-12-03T03:25:05.054Z,41.37
2017-12-03T03:27:33.262Z,40.08
2017-12-03T03:30:01.467Z,41.10
2017-12-03T03:32:29.749Z,48.65
2017-12-03T03:34:58.736Z,42.58
2017-12-03T03:37:26.964Z,45.65
2017-12-03T03:39:55.239Z,44.00
2017-12-03T03:42:23.461Z,47.35
2017-12-03T03:44:51.665Z,43.38
2017-12-03T03:47:20.620Z,41.90
2017-12-03T03:49:48.809Z,44.63
2017-12-03T03:52:17.046Z,42.35
2017-12-03T03:54:45.291Z,39.70
2017-12-03T03:57:13.525Z,41.35
2017-12-03T03:59:41.721Z,43.95
2017-12-03T04:02:10.729Z,40.42
2017-12-03T04:04:39.723Z,41.00
2017-12-03T04:07:08.748Z,39.42
2017-12-03T04:09:37.001Z,38.05
2017-12-03T04:12:05.224Z,42.47
2017-12-03T04:14:33.445Z,35.03
2017-12-03T04:17:02.458Z,40.95
2017-12-03T04:19:30.683Z,37.78
2017-12-03T04:21:58.984Z,38.78
2017-12-03T04:24:27.963Z,42.35
2017-12-03T04:26:56.219Z,35.60
2017-12-03T04:29:24.494Z,41.92
2017-12-03T04:31:52.740Z,32.35
2017-12-03T04:34:20.980Z,38.25
2017-12-03T04:36:49.994Z,34.95
2017-12-03T04:39:18.296Z,45.75
2017-12-03T04:41:46.573Z,41.97
2017-12-03T04:44:14.849Z,39.22
2017-12-03T04:46:43.098Z,35.33
2017-12-03T04:49:11.318Z,32.78
2017-12-03T04:51:39.529Z,31.48
2017-12-03T04:54:08.538Z,35.75
2017-12-03T04:56:36.748Z,34.25
2017-12-03T04:59:05.005Z,39.47
2017-12-03T05:01:33.381Z,39.13
2017-12-03T05:04:01.619Z,32.67
2017-12-03T05:06:29.843Z,32.47
2017-12-03T05:08:58.094Z,36.67
2017-12-03T05:11:27.141Z,34.10
2017-12-03T05:13:55.334Z,35.95
2017-12-03T05:16:23.545Z,39.78
2017-12-03T05:18:51.770Z,38.95
2017-12-03T05:21:20.012Z,38.60
2017-12-03T05:23:48.245Z,36.00
2017-12-03T05:26:16.491Z,41.65
2017-12-03T05:28:44.701Z,42.47
2017-12-03T05:31:13.669Z,39.65
2017-12-03T05:33:41.900Z,39.55
2017-12-03T05:36:10.228Z,39.83
2017-12-03T05:38:38.435Z,43.75
2017-12-03T05:41:07.446Z,40.20
2017-12-03T05:43:35.681Z,41.97
2017-12-03T05:46:04.018Z,42.92
2017-12-03T05:48:32.235Z,41.63
2017-12-03T05:51:00.486Z,35.80
2017-12-03T05:53:28.737Z,44.75
2017-12-03T05:55:57.006Z,39.03
2017-12-03T05:58:25.226Z,40.17
2017-12-03T06:00:53.568Z,42.70
2017-12-03T06:03:21.882Z,44.78
2017-12-03T06:05:50.110Z,42.42
2017-12-03T06:08:18.331Z,38.03
2017-12-03T06:10:46.573Z,40.97
2017-12-03T06:13:14.819Z,39.72
2017-12-03T06:15:43.827Z,46.60
2017-12-03T06:18:12.895Z,43.60
2017-12-03T06:20:41.138Z,39.55
2017-12-03T06:23:09.346Z,40.22
2017-12-03T06:25:37.532Z,44.15
2017-12-03T06:28:05.737Z,39.28
2017-12-03T06:30:33.949Z,43.35
2017-12-03T06:33:02.172Z,48.25
2017-12-03T06:35:31.143Z,41.37
2017-12-03T06:37:59.354Z,38.83
2017-12-03T06:40:27.575Z,39.65
2017-12-03T06:42:55.794Z,39.58
2017-12-03T06:45:24.753Z,45.88
2017-12-03T06:47:52.973Z,40.47
2017-12-03T06:50:21.224Z,40.30
2017-12-03T06:52:50.198Z,41.75
2017-12-03T06:55:19.231Z,40.90
2017-12-03T06:57:48.282Z,37.65
2017-12-03T07:00:16.556Z,36.83
2017-12-03T07:02:44.771Z,42.42
2017-12-03T07:05:13.795Z,39.25
2017-12-03T07:07:41.998Z,44.50
2017-12-03T07:10:10.207Z,44.20
2017-12-03T07:12:39.230Z,43.87
2017-12-03T07:15:07.486Z,42.75
2017-12-03T07:17:36.465Z,42.65
2017-12-03T07:20:05.420Z,38.80
2017-12-03T07:22:34.378Z,36.50
2017-12-03T07:25:02.577Z,42.28
2017-12-03T07:27:30.845Z,40.03
2017-12-03T07:29:59.031Z,43.20
2017-12-03T07:32:27.234Z,42.88
2017-12-03T07:34:55.544Z,44.28
2017-12-03T07:37:24.545Z,40.65
2017-12-03T07:39:53.520Z,35.78
2017-12-03T07:42:22.525Z,42.30
2017-12-03T07:44:51.519Z,41.45
2017-12-03T07:47:20.505Z,40.70
2017-12-03T07:49:49.486Z,43.03
2017-12-03T07:52:17.679Z,42.65
2017-12-03T07:54:45.940Z,41.72
2017-12-03T07:57:14.162Z,39.22
2017-12-03T07:59:42.390Z,43.35
2017-12-03T08:02:10.600Z,43.30
2017-12-03T08:04:38.798Z,47.58
2017-12-03T08:07:06.993Z,44.65
2017-12-03T08:09:35.199Z,49.17
2017-12-03T08:12:04.206Z,47.53
2017-12-03T08:14:33.193Z,48.78
2017-12-03T08:17:02.146Z,47.65
2017-12-03T08:19:30.323Z,49.00
2017-12-03T08:21:58.542Z,45.03
2017-12-03T08:24:27.549Z,48.55
2017-12-03T08:26:55.768Z,45.17
2017-12-03T08:29:23.997Z,43.05
2017-12-03T08:31:52.189Z,44.70
2017-12-03T08:34:20.369Z,45.67
2017-12-03T08:36:49.321Z,41.90
2017-12-03T08:39:17.527Z,39.38
2017-12-03T08:41:45.713Z,43.22
2017-12-03T08:44:14.665Z,41.15
2017-12-03T08:46:43.124Z,44.17
2017-12-03T08:49:11.366Z,48.95
2017-12-03T08:51:40.324Z,41.00
2017-12-03T08:54:08.572Z,40.35
2017-12-03T08:56:36.762Z,33.28
2017-12-03T08:59:04.933Z,37.95
2017-12-03T09:01:33.107Z,39.15
2017-12-03T09:04:01.282Z,35.20
2017-12-03T09:06:29.489Z,34.20
2017-12-03T09:08:57.657Z,35.15
2017-12-03T09:11:25.846Z,34.93
2017-12-03T09:13:54.799Z,33.15
2017-12-03T09:16:22.969Z,30.63
2017-12-03T09:18:51.351Z,33.27
2017-12-03T09:21:19.525Z,30.53
2017-12-03T09:23:47.702Z,34.20
2017-12-03T09:26:15.915Z,31.77
2017-12-03T09:28:44.092Z,30.08
2017-12-03T09:31:12.306Z,29.63
2017-12-03T09:33:40.472Z,28.67
2017-12-03T09:36:08.670Z,28.00
2017-12-03T09:38:36.847Z,33.63
2017-12-03T09:41:05.074Z,25.10
2017-12-03T09:43:33.258Z,25.53
2017-12-03T09:46:02.214Z,26.07
2017-12-03T09:48:30.393Z,21.70
2017-12-03T09:50:58.635Z,23.13
2017-12-03T09:53:26.854Z,21.33
2017-12-03T09:55:55.048Z,18.77
2017-12-03T09:58:24.070Z,24.67
2017-12-03T10:00:52.249Z,21.27
2017-12-03T10:03:20.450Z,22.30
2017-12-03T10:05:48.655Z,22.77
2017-12-03T10:08:16.859Z,20.70
2017-12-03T10:10:45.082Z,21.90
2017-12-03T10:13:13.279Z,22.60
2017-12-03T10:15:41.511Z,21.23
2017-12-03T10:18:09.695Z,23.87
2017-12-03T10:20:37.867Z,24.50
2017-12-03T10:23:06.081Z,24.60
2017-12-03T10:25:34.344Z,21.50
2017-12-03T10:28:02.525Z,25.20
2017-12-03T10:30:30.733Z,22.87
2017-12-03T10:32:59.670Z,22.73
2017-12-03T10:35:30.554Z,21.43
2017-12-03T10:38:22.200Z,20.70
2017-12-03T10:40:50.369Z,28.60
2017-12-03T10:43:19.328Z,21.23
2017-12-03T10:45:47.518Z,18.60
2017-12-03T10:48:16.466Z,18.80
2017-12-03T10:50:44.683Z,18.07
2017-12-03T10:53:13.661Z,17.30
2017-12-03T10:55:41.874Z,17.13
2017-12-03T10:58:10.042Z,15.90
2017-12-03T11:00:39.034Z,14.40
2017-12-03T11:03:08.023Z,16.20
2017-12-03T11:05:36.236Z,15.50
2017-12-03T11:08:05.249Z,22.30
2017-12-03T11:10:33.429Z,18.00
2017-12-03T11:13:01.604Z,16.00
2017-12-03T11:15:29.795Z,14.37
2017-12-03T11:17:58.035Z,14.87
2017-12-03T11:20:27.010Z,13.80
2017-12-03T11:22:55.209Z,14.07
2017-12-03T11:25:24.187Z,13.90
2017-12-03T11:27:53.151Z,13.30
2017-12-03T11:30:21.350Z,14.20
2017-12-03T11:32:49.531Z,14.00
2017-12-03T11:35:18.486Z,13.33
2017-12-03T11:37:46.689Z,12.80
2017-12-03T11:40:15.633Z,14.10
2017-12-03T11:42:43.809Z,14.87
2017-12-03T11:45:12.024Z,26.33
2017-12-03T11:47:40.259Z,20.10
2017-12-03T11:50:08.468Z,15.47
2017-12-03T11:52:36.644Z,15.70
2017-12-03T11:55:04.886Z,18.67
2017-12-03T11:57:33.063Z,18.63
2017-12-03T12:00:01.239Z,20.07
2017-12-03T12:02:29.441Z,18.10
2017-12-03T12:04:57.618Z,14.50
2017-12-03T12:07:26.557Z,13.70
2017-12-03T12:09:54.739Z,13.33
2017-12-03T12:12:22.907Z,13.03
2017-12-03T12:14:51.079Z,13.57
2017-12-03T12:17:19.269Z,13.07
2017-12-03T12:19:47.453Z,13.20
2017-12-03T12:22:15.681Z,13.50
2017-12-03T12:24:45.349Z,12.33
2017-12-03T12:27:13.526Z,14.73
2017-12-03T12:29:41.724Z,14.90
2017-12-03T12:32:09.939Z,14.57
2017-12-03T12:34:38.124Z,12.60
2017-12-03T12:37:06.324Z,12.37
2017-12-03T12:39:34.524Z,13.50
2017-12-03T12:42:02.742Z,13.27
2017-12-03T12:44:32.891Z,13.20
2017-12-03T12:47:01.119Z,12.90
2017-12-03T12:49:30.094Z,12.23
2017-12-03T12:51:58.272Z,12.50
2017-12-03T12:54:26.497Z,12.27
2017-12-03T12:56:55.405Z,12.80
2017-12-03T12:59:23.570Z,13.10
2017-12-03T13:01:51.751Z,12.03
2017-12-03T13:04:19.924Z,12.40
2017-12-03T13:06:48.101Z,11.70
2017-12-03T13:09:16.290Z,12.73
2017-12-03T13:11:44.471Z,10.90
2017-12-03T13:14:12.642Z,11.77
2017-12-03T13:16:40.831Z,11.30
2017-12-03T13:19:09.039Z,10.57
2017-12-03T13:21:37.974Z,12.10
2017-12-03T13:24:06.176Z,11.77
2017-12-03T13:26:35.123Z,12.07
2017-12-03T13:29:03.299Z,11.53
2017-12-03T13:31:31.486Z,11.30
2017-12-03T13:33:59.646Z,12.10
2017-12-03T13:36:27.829Z,13.80
2017-12-03T13:38:56.038Z,12.20
2017-12-03T13:41:24.214Z,11.93
2017-12-03T13:43:52.396Z,13.07
2017-12-03T13:46:20.619Z,12.10
2017-12-03T13:48:48.820Z,11.23
2017-12-03T13:51:16.996Z,12.07
2017-12-03T13:53:45.341Z,11.10
2017-12-03T13:56:13.525Z,13.40
2017-12-03T13:58:41.734Z,11.93
2017-12-03T14:01:09.911Z,12.00
2017-12-03T14:03:38.127Z,11.23
2017-12-03T14:06:06.307Z,10.37
2017-12-03T14:08:34.648Z,12.67
2017-12-03T14:11:03.612Z,12.17
2017-12-03T14:13:31.822Z,12.90
2017-12-03T14:16:00.791Z,11.73
2017-12-03T14:18:29.030Z,12.27
2017-12-03T14:20:57.312Z,12.20
2017-12-03T14:23:25.524Z,12.13
2017-12-03T14:25:53.766Z,12.60
2017-12-03T14:28:21.939Z,12.30
2017-12-03T14:30:50.266Z,12.83
2017-12-03T14:33:18.462Z,11.30
2017-12-03T14:35:47.410Z,10.83
2017-12-03T14:38:15.614Z,12.20
2017-12-03T14:40:44.570Z,11.17
2017-12-03T14:43:12.826Z,10.43
2017-12-03T14:45:41.065Z,11.00
2017-12-03T14:48:10.064Z,10.50
2017-12-03T14:50:39.009Z,12.60
2017-12-03T14:53:07.285Z,12.40
2017-12-03T14:55:35.446Z,10.20
2017-12-03T14:58:03.693Z,13.20
2017-12-03T15:00:31.924Z,20.17
2017-12-03T15:03:00.181Z,9.60
2017-12-03T15:05:28.394Z,15.00
2017-12-03T15:07:57.361Z,12.37
2017-12-03T15:10:25.579Z,11.87
2017-12-03T15:12:54.549Z,12.67
2017-12-03T15:15:22.777Z,10.93
2017-12-03T15:17:50.938Z,16.33
2017-12-03T15:20:19.198Z,13.57
2017-12-03T15:22:48.144Z,11.93
2017-12-03T15:25:16.317Z,12.60
2017-12-03T15:27:44.507Z,15.30
2017-12-03T15:30:13.529Z,12.93
2017-12-03T15:32:42.501Z,14.03
2017-12-03T15:35:10.695Z,13.37
2017-12-03T15:37:39.646Z,14.87
2017-12-03T15:40:07.822Z,13.47
2017-12-03T15:42:36.071Z,15.20
2017-12-03T15:45:04.293Z,12.77
2017-12-03T15:47:32.452Z,13.30
2017-12-03T15:50:00.617Z,36.33
2017-12-03T15:52:28.789Z,32.33
2017-12-03T15:54:57.004Z,28.23
2017-12-03T15:57:25.190Z,24.30
2017-12-03T15:59:54.146Z,18.50
2017-12-03T16:02:22.378Z,18.67
2017-12-03T16:04:50.584Z,20.70
2017-12-03T16:07:18.789Z,23.00
2017-12-03T16:09:46.959Z,16.97
2017-12-03T16:12:15.138Z,17.50
2017-12-03T16:14:43.354Z,20.43
2017-12-03T16:17:11.554Z,19.37
2017-12-03T16:19:39.747Z,16.67
2017-12-03T16:22:07.955Z,18.17
2017-12-03T16:24:36.946Z,18.80
2017-12-03T16:27:05.919Z,23.27
2017-12-03T16:29:34.139Z,27.07
2017-12-03T16:32:02.362Z,18.20
2017-12-03T16:34:30.651Z,44.20
2017-12-03T16:36:59.236Z,31.00
2017-12-03T16:39:27.423Z,28.70
2017-12-03T16:41:55.617Z,38.37
2017-12-03T16:44:24.582Z,45.17
2017-12-03T16:46:52.780Z,32.30
2017-12-03T16:49:21.796Z,29.00
2017-12-03T16:51:49.995Z,27.43
2017-12-03T16:54:18.179Z,19.77
2017-12-03T16:56:46.415Z,22.00
2017-12-03T16:59:14.613Z,24.00
2017-12-03T17:01:42.818Z,21.60
2017-12-03T17:04:11.058Z,25.97
2017-12-03T17:06:39.286Z,30.47
2017-12-03T17:09:07.490Z,28.63
2017-12-03T17:11:35.672Z,29.30
2017-12-03T17:14:03.946Z,28.03
2017-12-03T17:16:32.152Z,27.70
2017-12-03T17:19:00.437Z,29.20
2017-12-03T17:21:28.662Z,47.27
2017-12-03T17:23:57.640Z,29.00
2017-12-03T17:26:26.767Z,29.37
2017-12-03T17:28:54.973Z,28.90
2017-12-03T17:31:23.193Z,23.27
2017-12-03T17:33:52.163Z,29.87
2017-12-03T17:36:20.352Z,28.87
2017-12-03T17:38:48.526Z,24.47
2017-12-03T17:41:16.750Z,33.17
2017-12-03T17:43:44.935Z,28.90
2017-12-03T17:46:13.118Z,33.10
2017-12-03T17:48:41.344Z,104.10
2017-12-03T17:51:10.300Z,80.27
2017-12-03T17:53:38.538Z,49.73
2017-12-03T17:56:06.747Z,39.63
2017-12-03T17:58:34.989Z,34.37
2017-12-03T18:01:03.248Z,39.20
2017-12-03T18:03:31.415Z,29.90
2017-12-03T18:06:00.494Z,33.80
2017-12-03T18:08:29.591Z,33.53
2017-12-03T18:10:57.798Z,33.50
2017-12-03T18:13:26.004Z,34.10
2017-12-03T18:15:54.292Z,35.10
2017-12-03T18:18:22.601Z,26.83
2017-12-03T18:20:51.589Z,26.93
2017-12-03T18:23:20.562Z,24.60
2017-12-03T18:25:48.769Z,28.37
2017-12-03T18:28:17.708Z,25.10
2017-12-03T18:30:45.882Z,37.93
2017-12-03T18:33:14.056Z,35.07
2017-12-03T18:35:42.281Z,25.73
2017-12-03T18:38:11.459Z,28.50
2017-12-03T18:40:40.508Z,27.57
2017-12-03T18:43:08.787Z,25.70
2017-12-03T18:45:37.014Z,39.10
2017-12-03T18:48:05.240Z,44.93
2017-12-03T18:50:33.472Z,35.80
2017-12-03T18:53:02.515Z,30.75
2017-12-03T18:55:30.796Z,26.40
2017-12-03T18:57:59.055Z,22.90
2017-12-03T19:00:27.943Z,25.70
2017-12-03T19:02:56.214Z,32.13
2017-12-03T19:05:24.429Z,31.33
2017-12-03T19:07:52.632Z,32.10
2017-12-03T19:10:20.838Z,37.38
2017-12-03T19:12:49.061Z,36.15
2017-12-03T19:15:17.277Z,36.60
2017-12-03T19:17:46.232Z,30.42
2017-12-03T19:20:14.432Z,32.28
2017-12-03T19:22:43.397Z,30.00
2017-12-03T19:25:11.609Z,31.27
2017-12-03T19:27:40.732Z,29.73
2017-12-03T19:30:08.950Z,26.55
2017-12-03T19:32:37.168Z,31.55
2017-12-03T19:35:05.400Z,25.15
2017-12-03T19:37:33.594Z,25.12
2017-12-03T19:40:01.783Z,27.27
2017-12-03T19:42:30.811Z,22.77
2017-12-03T19:44:59.004Z,25.47
2017-12-03T19:47:27.199Z,23.98
2017-12-03T19:49:55.391Z,25.95
2017-12-03T19:52:24.351Z,27.98
2017-12-03T19:54:52.543Z,37.95
2017-12-03T19:57:20.780Z,39.92
2017-12-03T19:59:48.980Z,48.42
2017-12-03T20:02:17.222Z,28.10
2017-12-03T20:04:45.494Z,28.23
2017-12-03T20:07:13.738Z,22.25
2017-12-03T20:09:41.998Z,31.65
2017-12-03T20:12:10.202Z,32.78
2017-12-03T20:14:40.015Z,29.83
2017-12-03T20:17:09.037Z,29.45
2017-12-03T20:19:37.261Z,29.00
2017-12-03T20:22:05.503Z,30.52
2017-12-03T20:24:34.492Z,30.17
2017-12-03T20:27:02.749Z,23.45
2017-12-03T20:29:31.064Z,35.83
2017-12-03T20:31:59.747Z,31.02
2017-12-03T20:34:28.036Z,30.25
2017-12-03T20:36:56.302Z,31.90
2017-12-03T20:39:24.557Z,31.48
2017-12-03T20:41:52.810Z,29.85
2017-12-03T20:44:21.066Z,29.60
2017-12-03T20:46:49.594Z,27.10
2017-12-03T20:49:17.856Z,30.23
2017-12-03T20:51:46.044Z,26.30
2017-12-03T20:54:14.255Z,24.75
2017-12-03T20:56:42.505Z,27.20
2017-12-03T20:59:10.704Z,24.45
2017-12-03T21:01:38.908Z,26.98
2017-12-03T21:04:07.898Z,23.55
2017-12-03T21:06:36.895Z,26.02
2017-12-03T21:09:05.915Z,26.08
2017-12-03T21:11:34.133Z,25.92
2017-12-03T21:14:03.162Z,26.40
2017-12-03T21:16:32.136Z,20.80
2017-12-03T21:19:00.352Z,27.37
2017-12-03T21:21:28.556Z,30.20
2017-12-03T21:23:56.755Z,26.73
2017-12-03T21:26:25.078Z,25.58
2017-12-03T21:28:53.281Z,22.45
2017-12-03T21:31:21.502Z,23.23
2017-12-03T21:33:49.736Z,25.12
2017-12-03T21:36:17.909Z,22.45
2017-12-03T21:38:46.090Z,22.95
2017-12-03T21:41:14.293Z,26.27
2017-12-03T21:43:42.475Z,31.35
2017-12-03T21:46:10.700Z,24.67
2017-12-03T21:48:38.889Z,33.90
2017-12-03T21:51:07.074Z,25.00
2017-12-03T21:53:35.316Z,24.50
2017-12-03T21:56:03.534Z,22.55
2017-12-03T21:58:31.736Z,26.37
2017-12-03T22:01:00.733Z,34.22
2017-12-03T22:03:29.706Z,27.95
2017-12-03T22:05:57.912Z,27.35
2017-12-03T22:08:26.890Z,25.15
2017-12-03T22:10:55.839Z,24.50
2017-12-03T22:13:24.030Z,28.27
2017-12-03T22:15:52.252Z,29.95
2017-12-03T22:18:20.453Z,22.40
2017-12-03T22:20:48.713Z,22.52
2017-12-03T22:23:16.966Z,26.45
2017-12-03T22:25:45.146Z,26.15
2017-12-03T22:28:14.121Z,21.25
2017-12-03T22:30:42.305Z,22.60
2017-12-03T22:33:11.270Z,25.02
2017-12-03T22:35:40.287Z,26.42
2017-12-03T22:38:09.241Z,23.87
2017-12-03T22:40:37.418Z,27.30
2017-12-03T22:43:05.844Z,24.15
2017-12-03T22:45:34.788Z,20.85
2017-12-03T22:48:03.165Z,25.90
2017-12-03T22:50:31.384Z,22.13
2017-12-03T22:53:00.362Z,22.85
2017-12-03T22:55:28.560Z,24.12
2017-12-03T22:57:57.530Z,19.30
2017-12-03T23:00:34.583Z,22.48
2017-12-03T23:03:02.770Z,29.45
2017-12-03T23:05:31.007Z,21.75
2017-12-03T23:07:59.211Z,18.23
2017-12-03T23:10:27.409Z,20.05
2017-12-03T23:12:55.626Z,19.33
2017-12-03T23:15:23.847Z,19.23
2017-12-03T23:17:52.035Z,20.95
2017-12-03T23:20:20.293Z,16.80
2017-12-03T23:22:48.533Z,14.90
2017-12-03T23:25:16.861Z,18.58
2017-12-03T23:27:45.082Z,14.48
2017-12-03T23:30:13.306Z,13.65
2017-12-03T23:32:41.507Z,15.32
2017-12-03T23:35:09.709Z,15.85
2017-12-03T23:37:37.948Z,14.48
2017-12-03T23:40:06.179Z,16.90
2017-12-03T23:42:34.415Z,13.65
2017-12-03T23:45:03.365Z,17.23
2017-12-03T23:47:31.545Z,15.18
2017-12-03T23:49:59.755Z,18.35
2017-12-03T23:52:27.955Z,22.15
2017-12-03T23:54:56.160Z,20.85
2017-12-03T23:57:24.374Z,17.37
2017-12-03T23:59:52.574Z,16.50
